createdAt,value
2024-02-11T00:01:09.336Z,99.90
2024-02-11T00:03:56.146Z,99.90
2024-02-11T00:06:41.590Z,99.90
2024-02-11T00:09:28.738Z,99.90
2024-02-11T00:12:14.320Z,99.90
2024-02-11T00:15:02.447Z,99.90
2024-02-11T00:17:49.930Z,99.90
2024-02-11T00:20:35.352Z,99.90
2024-02-11T00:23:23.136Z,99.90
2024-02-11T00:26:09.278Z,99.90
2024-02-11T00:28:54.756Z,99.90
2024-02-11T00:31:40.544Z,99.90
2024-02-11T00:34:25.938Z,99.90
2024-02-11T00:37:14.134Z,99.90
2024-02-11T00:39:59.433Z,99.90
2024-02-11T00:42:46.504Z,99.90
2024-02-11T00:45:31.689Z,99.90
2024-02-11T00:48:17.646Z,99.90
2024-02-11T00:51:03.521Z,99.90
2024-02-11T00:53:49.610Z,99.90
2024-02-11T00:56:35.058Z,99.90
2024-02-11T00:59:21.109Z,99.90
2024-02-11T01:02:06.637Z,99.90
2024-02-11T01:04:53.016Z,99.90
2024-02-11T01:07:42.939Z,99.40
2024-02-11T01:10:32.609Z,99.40
2024-02-11T01:13:18.338Z,99.20
2024-02-11T01:16:04.053Z,99.40
2024-02-11T01:18:50.046Z,99.50
2024-02-11T01:21:36.839Z,99.20
2024-02-11T01:24:22.685Z,99.00
2024-02-11T01:27:09.601Z,99.20
2024-02-11T01:29:55.161Z,99.20
2024-02-11T01:32:40.688Z,99.20
2024-02-11T01:35:27.805Z,99.40
2024-02-11T01:38:13.403Z,99.10
2024-02-11T01:40:58.999Z,98.80
2024-02-11T01:43:44.631Z,99.00
2024-02-11T01:46:30.119Z,99.10
2024-02-11T01:49:15.903Z,99.10
2024-02-11T01:52:02.335Z,99.20
2024-02-11T01:54:48.423Z,99.20
2024-02-11T01:57:34.293Z,99.60
2024-02-11T02:00:21.265Z,99.80
2024-02-11T02:03:08.770Z,99.70
2024-02-11T02:05:55.612Z,99.50
2024-02-11T02:08:41.187Z,99.40
2024-02-11T02:11:26.743Z,99.20
2024-02-11T02:14:12.285Z,99.00
2024-02-11T02:16:58.188Z,99.40
2024-02-11T02:19:43.486Z,99.30
2024-02-11T02:22:29.579Z,99.20
2024-02-11T02:25:15.486Z,99.40
2024-02-11T02:28:05.698Z,99.50
2024-02-11T02:30:51.447Z,99.80
2024-02-11T02:33:37.828Z,99.90
2024-02-11T02:36:23.810Z,99.90
2024-02-11T02:39:12.086Z,99.90
2024-02-11T02:41:57.452Z,99.90
2024-02-11T02:44:43.948Z,99.90
2024-02-11T02:47:29.934Z,99.70
2024-02-11T02:50:18.788Z,99.50
2024-02-11T02:53:04.960Z,99.90
2024-02-11T02:55:51.979Z,99.80
2024-02-11T02:58:37.344Z,99.80
2024-02-11T03:01:25.799Z,99.60
2024-02-11T03:04:13.044Z,99.50
2024-02-11T03:06:58.677Z,99.80
2024-02-11T03:09:44.403Z,99.60
2024-02-11T03:12:29.917Z,99.70
2024-02-11T03:15:17.091Z,99.80
2024-02-11T03:18:05.784Z,99.90
2024-02-11T03:20:51.371Z,99.90
2024-02-11T03:23:38.989Z,99.90
2024-02-11T03:26:24.609Z,99.90
2024-02-11T03:29:10.471Z,99.70
2024-02-11T03:31:56.737Z,99.70
2024-02-11T03:34:42.539Z,99.30
2024-02-11T03:37:35.263Z,99.20
2024-02-11T03:40:21.328Z,99.50
2024-02-11T03:43:06.893Z,99.70
2024-02-11T03:45:52.597Z,99.20
2024-02-11T03:48:38.211Z,99.10
2024-02-11T03:51:24.897Z,99.20
2024-02-11T03:54:10.605Z,99.40
2024-02-11T03:56:56.009Z,99.70
2024-02-11T03:59:44.214Z,99.50
2024-02-11T04:02:29.898Z,99.60
2024-02-11T04:05:17.319Z,99.80
2024-02-11T04:08:03.153Z,99.90
2024-02-11T04:10:53.204Z,99.90
2024-02-11T04:13:39.131Z,99.90
2024-02-11T04:16:24.421Z,99.90
2024-02-11T04:19:13.113Z,99.90
2024-02-11T04:21:59.482Z,99.90
2024-02-11T04:24:47.065Z,99.90
2024-02-11T04:27:32.585Z,99.90
2024-02-11T04:30:20.654Z,99.90
2024-02-11T04:33:08.144Z,99.90
2024-02-11T04:35:54.380Z,99.90
2024-02-11T04:38:40.109Z,99.90
2024-02-11T04:41:25.345Z,99.90
2024-02-11T04:44:11.072Z,99.90
2024-02-11T04:46:56.361Z,99.90
2024-02-11T04:49:42.641Z,99.90
2024-02-11T04:52:30.677Z,99.90
2024-02-11T04:55:16.538Z,99.90
2024-02-11T04:58:02.924Z,99.90
2024-02-11T05:00:49.498Z,99.90
2024-02-11T05:03:35.242Z,99.90
2024-02-11T05:06:25.045Z,99.90
2024-02-11T05:09:11.200Z,99.90
2024-02-11T05:11:56.657Z,99.90
2024-02-11T05:14:44.524Z,99.90
2024-02-11T05:17:30.607Z,99.90
2024-02-11T05:20:22.392Z,99.90
2024-02-11T05:23:10.332Z,99.90
2024-02-11T05:25:59.253Z,99.90
2024-02-11T05:28:45.106Z,99.90
2024-02-11T05:31:30.542Z,99.90
2024-02-11T05:34:16.494Z,99.90
2024-02-11T05:37:02.250Z,99.90
2024-02-11T05:39:48.574Z,99.90
2024-02-11T05:42:34.157Z,99.90
2024-02-11T05:45:19.893Z,99.90
2024-02-11T05:48:06.014Z,99.90
2024-02-11T05:50:51.780Z,99.90
2024-02-11T05:53:37.596Z,99.90
2024-02-11T05:56:23.822Z,99.90
2024-02-11T05:59:10.058Z,99.90
2024-02-11T06:01:55.297Z,99.90
2024-02-11T06:04:40.896Z,99.90
2024-02-11T06:07:26.370Z,99.90
2024-02-11T06:10:14.636Z,99.90
2024-02-11T06:13:00.232Z,99.90
2024-02-11T06:15:45.894Z,99.90
2024-02-11T06:18:31.072Z,99.90
2024-02-11T06:21:17.978Z,99.90
2024-02-11T06:24:06.145Z,99.90
2024-02-11T06:26:51.735Z,99.90
2024-02-11T06:29:37.168Z,99.90
2024-02-11T06:32:22.512Z,99.90
2024-02-11T06:35:08.279Z,99.90
2024-02-11T06:37:54.177Z,99.90
2024-02-11T06:40:40.930Z,99.90
2024-02-11T06:43:28.957Z,99.90
2024-02-11T06:46:14.195Z,99.90
2024-02-11T06:49:03.077Z,99.90
2024-02-11T06:51:48.789Z,99.90
2024-02-11T06:54:34.277Z,99.90
2024-02-11T06:57:20.122Z,99.90
2024-02-11T07:00:10.477Z,99.90
2024-02-11T07:03:01.938Z,99.90
2024-02-11T07:05:47.565Z,99.90
2024-02-11T07:08:34.160Z,99.90
2024-02-11T07:11:19.779Z,99.90
2024-02-11T07:14:07.476Z,99.90
2024-02-11T07:16:55.121Z,99.90
2024-02-11T07:19:40.409Z,99.90
2024-02-11T07:22:28.807Z,99.90
2024-02-11T07:25:14.114Z,99.90
2024-02-11T07:27:59.814Z,99.90
2024-02-11T07:30:46.554Z,99.90
2024-02-11T07:33:32.078Z,99.90
2024-02-11T07:36:18.734Z,99.90
2024-02-11T07:39:04.866Z,99.90
2024-02-11T07:41:50.250Z,99.90
2024-02-11T07:44:36.827Z,99.90
2024-02-11T07:47:22.643Z,99.90
2024-02-11T07:50:08.201Z,99.90
2024-02-11T07:52:53.577Z,99.90
2024-02-11T07:55:39.252Z,99.90
2024-02-11T07:58:25.052Z,99.90
2024-02-11T08:01:10.456Z,99.90
2024-02-11T08:03:56.048Z,99.90
2024-02-11T08:06:41.461Z,99.90
2024-02-11T08:09:26.958Z,99.90
2024-02-11T08:12:12.537Z,99.90
2024-02-11T08:14:58.127Z,99.90
2024-02-11T08:17:43.649Z,99.90
2024-02-11T08:20:30.630Z,99.90
2024-02-11T08:23:16.563Z,99.90
2024-02-11T08:26:03.139Z,99.90
2024-02-11T08:28:49.967Z,99.90
2024-02-11T08:31:35.197Z,99.90
2024-02-11T08:34:20.920Z,99.90
2024-02-11T08:37:06.495Z,99.90
2024-02-11T08:39:52.166Z,99.90
2024-02-11T08:42:37.598Z,99.80
2024-02-11T08:45:23.268Z,99.50
2024-02-11T08:48:09.088Z,99.90
2024-02-11T08:50:56.060Z,99.80
2024-02-11T08:53:42.737Z,99.60
2024-02-11T08:56:28.930Z,99.10
2024-02-11T08:59:14.797Z,99.00
2024-02-11T09:02:00.863Z,99.00
2024-02-11T09:04:46.497Z,99.50
2024-02-11T09:07:32.326Z,99.70
2024-02-11T09:10:17.745Z,99.60
2024-02-11T09:13:03.288Z,99.60
2024-02-11T09:15:48.885Z,99.30
2024-02-11T09:18:34.633Z,99.50
2024-02-11T09:21:20.220Z,99.10
2024-02-11T09:24:06.434Z,99.30
2024-02-11T09:26:52.617Z,98.90
2024-02-11T09:29:38.699Z,99.20
2024-02-11T09:32:24.876Z,98.70
2024-02-11T09:35:10.935Z,98.20
2024-02-11T09:37:56.302Z,98.00
2024-02-11T09:40:41.754Z,98.80
2024-02-11T09:43:29.741Z,99.00
2024-02-11T09:46:19.619Z,98.70
2024-02-11T09:49:09.613Z,98.90
2024-02-11T09:51:59.481Z,99.10
2024-02-11T09:54:47.564Z,99.50
2024-02-11T09:57:33.228Z,99.80
2024-02-11T10:00:20.037Z,99.70
2024-02-11T10:03:08.637Z,99.80
2024-02-11T10:05:57.297Z,99.90
2024-02-11T10:08:43.070Z,99.80
2024-02-11T10:11:28.980Z,99.90
2024-02-11T10:14:15.190Z,99.80
2024-02-11T10:17:01.631Z,99.90
2024-02-11T10:19:48.049Z,99.90
2024-02-11T10:22:33.526Z,99.60
2024-02-11T10:25:23.974Z,99.50
2024-02-11T10:28:09.577Z,99.50
2024-02-11T10:30:56.488Z,99.10
2024-02-11T10:33:42.609Z,99.90
2024-02-11T10:36:28.897Z,99.80
2024-02-11T10:39:14.566Z,99.90
2024-02-11T10:42:00.302Z,99.90
2024-02-11T10:44:50.457Z,99.90
2024-02-11T10:47:36.368Z,99.90
2024-02-11T10:50:22.579Z,99.90
2024-02-11T10:53:11.182Z,99.90
2024-02-11T10:55:57.545Z,99.90
2024-02-11T10:58:48.737Z,99.00
2024-02-11T11:01:37.326Z,98.90
2024-02-11T11:04:25.815Z,98.60
2024-02-11T11:07:17.693Z,98.70
2024-02-11T11:10:11.548Z,99.30
2024-02-11T11:12:58.630Z,98.40
2024-02-11T11:15:44.975Z,98.30
2024-02-11T11:18:38.796Z,98.60
2024-02-11T11:21:24.247Z,98.10
2024-02-11T11:24:10.051Z,98.70
2024-02-11T11:26:58.022Z,99.70
2024-02-11T11:29:43.450Z,99.60
2024-02-11T11:32:30.111Z,99.80
2024-02-11T11:35:17.345Z,99.90
2024-02-11T11:38:04.101Z,99.90
2024-02-11T11:40:52.243Z,99.90
2024-02-11T11:43:37.976Z,99.10
2024-02-11T11:46:25.178Z,99.10
2024-02-11T11:49:11.082Z,96.90
2024-02-11T11:51:59.886Z,97.10
2024-02-11T11:54:45.309Z,97.10
2024-02-11T11:57:33.722Z,96.40
2024-02-11T12:00:19.987Z,96.00
2024-02-11T12:03:05.787Z,97.20
2024-02-11T12:05:51.775Z,97.10
2024-02-11T12:08:39.065Z,96.50
2024-02-11T12:11:25.048Z,96.40
2024-02-11T12:14:13.004Z,98.00
2024-02-11T12:16:58.400Z,96.40
2024-02-11T12:19:45.301Z,96.50
2024-02-11T12:22:30.678Z,95.80
2024-02-11T12:25:21.929Z,96.50
2024-02-11T12:28:07.760Z,97.10
2024-02-11T12:31:11.163Z,95.10
2024-02-11T12:33:56.955Z,95.30
2024-02-11T12:36:42.362Z,95.30
2024-02-11T12:39:28.460Z,94.60
2024-02-11T12:42:13.999Z,93.60
2024-02-11T12:45:00.166Z,93.90
2024-02-11T12:47:46.297Z,93.60
2024-02-11T12:50:31.804Z,93.90
2024-02-11T12:53:18.720Z,93.60
2024-02-11T12:56:07.000Z,94.30
2024-02-11T12:58:52.714Z,92.60
2024-02-11T13:01:38.609Z,92.80
2024-02-11T13:04:24.268Z,93.20
2024-02-11T13:07:09.897Z,94.20
2024-02-11T13:09:55.680Z,94.00
2024-02-11T13:12:41.324Z,93.70
2024-02-11T13:15:27.023Z,92.80
2024-02-11T13:18:15.774Z,93.40
2024-02-11T13:21:04.461Z,93.00
2024-02-11T13:23:49.670Z,92.50
2024-02-11T13:26:35.279Z,91.90
2024-02-11T13:29:20.660Z,91.00
2024-02-11T13:32:06.313Z,91.40
2024-02-11T13:34:53.899Z,92.20
2024-02-11T13:37:39.973Z,92.50
2024-02-11T13:40:26.742Z,92.00
2024-02-11T13:43:15.062Z,92.70
2024-02-11T13:46:00.950Z,92.80
2024-02-11T13:48:46.782Z,93.00
2024-02-11T13:51:32.267Z,92.80
2024-02-11T13:54:17.799Z,92.90
2024-02-11T13:57:04.913Z,92.50
2024-02-11T13:59:52.111Z,94.10
2024-02-11T14:02:37.504Z,93.10
2024-02-11T14:05:25.246Z,93.80
2024-02-11T14:08:12.975Z,93.70
2024-02-11T14:10:59.833Z,93.90
2024-02-11T14:13:45.356Z,93.80
2024-02-11T14:16:31.174Z,93.50
2024-02-11T14:19:16.439Z,94.10
2024-02-11T14:22:04.852Z,94.20
2024-02-11T14:24:50.089Z,94.80
2024-02-11T14:27:35.880Z,93.90
2024-02-11T14:30:22.273Z,93.90
2024-02-11T14:33:08.228Z,94.20
2024-02-11T14:35:56.976Z,94.30
2024-02-11T14:38:45.408Z,94.80
2024-02-11T14:41:31.811Z,95.00
2024-02-11T14:44:18.991Z,95.20
2024-02-11T14:47:05.991Z,94.40
2024-02-11T14:49:51.576Z,96.50
2024-02-11T14:52:37.489Z,95.60
2024-02-11T14:55:23.319Z,95.50
2024-02-11T14:58:10.553Z,96.10
2024-02-11T15:00:57.755Z,95.60
2024-02-11T15:03:43.596Z,96.50
2024-02-11T15:06:29.362Z,96.90
2024-02-11T15:09:16.414Z,96.70
2024-02-11T15:12:02.300Z,95.70
2024-02-11T15:14:48.233Z,96.20
2024-02-11T15:17:33.830Z,96.50
2024-02-11T15:20:19.684Z,97.80
2024-02-11T15:23:05.304Z,98.70
2024-02-11T15:25:51.205Z,99.90
2024-02-11T15:28:38.443Z,99.90
2024-02-11T15:31:23.810Z,99.70
2024-02-11T15:34:09.702Z,99.40
2024-02-11T15:36:55.144Z,98.80
2024-02-11T15:39:41.028Z,98.50
2024-02-11T15:42:28.503Z,99.50
2024-02-11T15:45:14.156Z,99.30
2024-02-11T15:47:59.952Z,99.20
2024-02-11T15:50:45.370Z,99.40
2024-02-11T15:53:31.482Z,99.10
2024-02-11T15:56:17.143Z,99.40
2024-02-11T15:59:02.668Z,99.70
2024-02-11T16:01:48.127Z,99.90
2024-02-11T16:04:34.220Z,99.10
2024-02-11T16:07:20.050Z,99.30
2024-02-11T16:10:11.252Z,99.70
2024-02-11T16:12:57.365Z,99.90
2024-02-11T16:15:44.141Z,99.90
2024-02-11T16:18:30.533Z,99.90
2024-02-11T16:21:18.674Z,99.90
2024-02-11T16:24:04.221Z,99.90
2024-02-11T16:26:49.789Z,99.90
2024-02-11T16:29:35.527Z,99.90
2024-02-11T16:32:24.367Z,99.90
2024-02-11T16:35:10.503Z,99.90
2024-02-11T16:37:57.998Z,99.60
2024-02-11T16:40:43.651Z,99.90
2024-02-11T16:43:28.830Z,99.90
2024-02-11T16:46:14.287Z,99.90
2024-02-11T16:49:00.523Z,99.90
2024-02-11T16:51:46.371Z,99.90
2024-02-11T16:54:35.090Z,99.90
2024-02-11T16:57:20.561Z,99.90
2024-02-11T17:00:06.862Z,99.90
2024-02-11T17:02:52.624Z,99.90
2024-02-11T17:05:38.402Z,99.90
2024-02-11T17:08:23.932Z,99.90
2024-02-11T17:11:12.330Z,99.90
2024-02-11T17:13:57.957Z,99.90
2024-02-11T17:16:44.453Z,99.90
2024-02-11T17:19:30.142Z,99.90
2024-02-11T17:22:15.770Z,99.90
2024-02-11T17:25:01.111Z,99.90
2024-02-11T17:27:47.097Z,99.90
2024-02-11T17:30:33.514Z,99.90
2024-02-11T17:33:23.372Z,99.90
2024-02-11T17:36:16.033Z,99.90
2024-02-11T17:39:01.940Z,99.90
2024-02-11T17:41:48.508Z,99.90
2024-02-11T17:44:35.247Z,99.90
2024-02-11T17:47:20.876Z,99.90
2024-02-11T17:50:12.257Z,99.90
2024-02-11T17:52:58.022Z,99.90
2024-02-11T17:55:44.262Z,99.90
2024-02-11T17:58:29.719Z,99.90
2024-02-11T18:01:18.123Z,99.90
2024-02-11T18:04:06.843Z,99.90
2024-02-11T18:06:52.693Z,99.90
2024-02-11T18:09:38.373Z,99.90
2024-02-11T18:12:24.996Z,99.90
2024-02-11T18:15:13.195Z,99.90
2024-02-11T18:18:00.407Z,99.90
2024-02-11T18:20:46.190Z,99.90
2024-02-11T18:23:33.168Z,99.90
2024-02-11T18:26:20.177Z,99.90
2024-02-11T18:29:05.910Z,99.90
2024-02-11T18:31:57.665Z,99.90
2024-02-11T18:34:43.978Z,99.90
2024-02-11T18:37:30.513Z,99.90
2024-02-11T18:40:16.842Z,99.90
2024-02-11T18:43:02.303Z,99.90
2024-02-11T18:45:48.518Z,99.90
2024-02-11T18:48:34.116Z,99.90
2024-02-11T18:51:20.505Z,99.90
2024-02-11T18:54:06.281Z,99.90
2024-02-11T18:56:51.568Z,99.90
2024-02-11T18:59:37.919Z,99.90
2024-02-11T19:02:23.623Z,99.90
2024-02-11T19:05:11.018Z,99.90
2024-02-11T19:07:57.042Z,99.90
2024-02-11T19:10:42.813Z,99.90
2024-02-11T19:13:28.841Z,99.90
2024-02-11T19:16:14.973Z,99.90
2024-02-11T19:19:00.799Z,99.90
2024-02-11T19:21:47.070Z,99.90
2024-02-11T19:24:33.196Z,99.90
2024-02-11T19:27:18.996Z,99.90
2024-02-11T19:30:07.315Z,99.90
2024-02-11T19:32:53.739Z,99.90
2024-02-11T19:35:40.872Z,99.90
2024-02-11T19:38:27.915Z,99.90
2024-02-11T19:41:13.597Z,99.90
2024-02-11T19:43:59.431Z,99.90
2024-02-11T19:46:45.569Z,99.90
2024-02-11T19:49:31.074Z,99.90
2024-02-11T19:52:17.141Z,99.90
2024-02-11T19:55:03.721Z,99.90
2024-02-11T19:57:49.437Z,99.90
2024-02-11T20:00:35.107Z,99.90
2024-02-11T20:03:22.262Z,99.90
2024-02-11T20:06:09.455Z,99.90
2024-02-11T20:08:54.978Z,99.90
2024-02-11T20:11:47.611Z,99.90
2024-02-11T20:14:38.874Z,99.90
2024-02-11T20:17:24.388Z,99.90
2024-02-11T20:20:14.670Z,99.90
2024-02-11T20:23:01.522Z,99.90
2024-02-11T20:25:47.654Z,99.90
2024-02-11T20:28:35.392Z,99.90
2024-02-11T20:31:23.507Z,99.90
2024-02-11T20:34:09.351Z,99.90
2024-02-11T20:36:57.169Z,99.90
2024-02-11T20:39:42.728Z,99.90
2024-02-11T20:42:28.415Z,99.90
2024-02-11T20:45:17.727Z,99.90
2024-02-11T20:48:04.600Z,99.90
2024-02-11T20:50:50.786Z,99.90
2024-02-11T20:53:38.491Z,99.90
2024-02-11T20:56:28.132Z,99.90
2024-02-11T20:59:16.476Z,99.90
2024-02-11T21:02:04.432Z,99.90
2024-02-11T21:04:50.309Z,99.90
2024-02-11T21:07:38.324Z,99.90
2024-02-11T21:10:24.870Z,99.90
2024-02-11T21:13:12.889Z,99.90
2024-02-11T21:15:58.684Z,99.90
2024-02-11T21:18:48.068Z,99.90
2024-02-11T21:21:34.820Z,99.90
2024-02-11T21:24:20.844Z,99.90
2024-02-11T21:27:06.621Z,99.90
2024-02-11T21:29:52.725Z,99.90
2024-02-11T21:32:40.843Z,99.90
2024-02-11T21:35:29.968Z,99.90
2024-02-11T21:38:15.825Z,99.90
2024-02-11T21:41:03.209Z,99.90
2024-02-11T21:43:48.791Z,99.90
2024-02-11T21:46:34.108Z,99.90
2024-02-11T21:49:19.898Z,99.70
2024-02-11T21:52:05.715Z,98.60
2024-02-11T21:54:51.126Z,93.20
2024-02-11T21:57:41.525Z,93.10
2024-02-11T22:00:27.601Z,92.30
2024-02-11T22:03:13.786Z,92.00
2024-02-11T22:05:59.456Z,91.20
2024-02-11T22:08:45.015Z,92.00
2024-02-11T22:11:32.144Z,91.10
2024-02-11T22:14:20.492Z,91.50
2024-02-11T22:17:06.153Z,91.20
2024-02-11T22:19:54.405Z,91.60
2024-02-11T22:22:40.486Z,91.50
2024-02-11T22:25:25.912Z,92.60
2024-02-11T22:28:11.900Z,93.30
2024-02-11T22:30:57.068Z,95.20
2024-02-11T22:33:43.894Z,96.50
2024-02-11T22:36:30.316Z,97.10
2024-02-11T22:39:18.981Z,98.00
2024-02-11T22:42:04.908Z,98.70
2024-02-11T22:44:50.751Z,98.10
2024-02-11T22:47:36.523Z,95.90
2024-02-11T22:50:21.985Z,95.00
2024-02-11T22:53:07.521Z,93.90
2024-02-11T22:55:53.251Z,93.70
2024-02-11T22:58:38.689Z,93.20
2024-02-11T23:01:24.399Z,93.10
2024-02-11T23:04:12.617Z,92.20
2024-02-11T23:07:00.956Z,93.60
2024-02-11T23:09:46.049Z,94.60
2024-02-11T23:12:32.977Z,93.90
2024-02-11T23:15:18.465Z,92.30
2024-02-11T23:18:05.359Z,93.40
2024-02-11T23:20:51.813Z,93.90
2024-02-11T23:23:41.301Z,93.40
2024-02-11T23:26:26.971Z,94.70
2024-02-11T23:29:12.494Z,96.10
2024-02-11T23:31:57.993Z,96.80
2024-02-11T23:34:43.807Z,97.80
2024-02-11T23:37:29.785Z,98.10
2024-02-11T23:40:15.163Z,98.70
2024-02-11T23:43:01.210Z,99.40
2024-02-11T23:45:46.640Z,99.90
2024-02-11T23:48:32.487Z,99.90
2024-02-11T23:51:18.547Z,99.70
2024-02-11T23:54:04.694Z,99.90
2024-02-11T23:56:50.012Z,99.80
2024-02-11T23:59:36.763Z,99.80
